createdAt,value
2023-02-13T00:00:52.440Z,9.87
2023-02-13T00:03:20.165Z,10.23
2023-02-13T00:05:48.770Z,10.67
2023-02-13T00:08:16.771Z,11.67
2023-02-13T00:10:44.445Z,9.90
2023-02-13T00:13:12.625Z,10.33
2023-02-13T00:15:40.774Z,10.67
2023-02-13T00:18:10.631Z,10.27
2023-02-13T00:20:38.289Z,10.77
2023-02-13T00:23:06.327Z,12.53
2023-02-13T00:25:34.012Z,10.80
2023-02-13T00:28:01.758Z,10.93
2023-02-13T00:30:29.970Z,9.93
2023-02-13T00:32:57.625Z,10.00
2023-02-13T00:35:27.150Z,12.50
2023-02-13T00:37:55.172Z,10.80
2023-02-13T00:40:25.532Z,10.77
2023-02-13T00:42:53.246Z,11.90
2023-02-13T00:45:20.876Z,10.80
2023-02-13T00:47:48.523Z,11.57
2023-02-13T00:50:17.192Z,11.90
2023-02-13T00:52:46.565Z,11.43
2023-02-13T00:55:14.308Z,11.37
2023-02-13T00:57:41.993Z,10.20
2023-02-13T01:00:14.462Z,10.63
2023-02-13T01:02:42.674Z,11.30
2023-02-13T01:05:10.386Z,11.57
2023-02-13T01:07:38.448Z,12.43
2023-02-13T01:10:08.919Z,10.83
2023-02-13T01:12:37.477Z,10.63
2023-02-13T01:15:08.434Z,10.47
2023-02-13T01:17:36.123Z,10.57
2023-02-13T01:20:04.222Z,10.73
2023-02-13T01:22:31.854Z,10.17
2023-02-13T01:25:00.645Z,11.20
2023-02-13T01:27:33.550Z,10.10
2023-02-13T01:30:02.029Z,11.07
2023-02-13T01:32:31.221Z,10.30
2023-02-13T01:34:58.820Z,9.23
2023-02-13T01:37:26.953Z,10.43
2023-02-13T01:39:56.360Z,10.70
2023-02-13T01:42:27.765Z,12.60
2023-02-13T01:44:58.271Z,10.33
2023-02-13T01:47:30.443Z,10.17
2023-02-13T01:50:05.786Z,10.17
2023-02-13T01:52:34.730Z,11.40
2023-02-13T01:55:02.747Z,10.60
2023-02-13T01:57:33.450Z,11.93
2023-02-13T02:00:06.906Z,10.10
2023-02-13T02:02:49.672Z,10.40
2023-02-13T02:05:23.341Z,10.47
2023-02-13T02:07:51.794Z,11.40
2023-02-13T02:10:23.545Z,11.67
2023-02-13T02:12:56.984Z,11.10
2023-02-13T02:15:26.799Z,10.53
2023-02-13T02:17:54.819Z,10.87
2023-02-13T02:20:37.492Z,12.93
2023-02-13T02:23:35.021Z,11.40
2023-02-13T02:26:37.741Z,12.20
2023-02-13T02:29:38.729Z,10.60
2023-02-13T02:32:25.131Z,10.77
2023-02-13T02:34:59.297Z,12.40
2023-02-13T02:37:43.453Z,13.33
2023-02-13T02:40:24.371Z,11.33
2023-02-13T02:43:07.537Z,11.73
2023-02-13T02:45:41.428Z,12.23
2023-02-13T02:48:39.136Z,10.93
2023-02-13T02:51:18.127Z,10.70
2023-02-13T02:53:54.909Z,14.10
2023-02-13T02:56:28.188Z,10.10
2023-02-13T02:59:20.599Z,11.40
2023-02-13T03:02:07.702Z,10.87
2023-02-13T03:05:00.656Z,10.53
2023-02-13T03:07:29.083Z,10.77
2023-02-13T03:10:18.008Z,11.17
2023-02-13T03:13:07.300Z,11.60
2023-02-13T03:16:00.490Z,11.47
2023-02-13T03:18:48.287Z,11.60
2023-02-13T03:21:41.957Z,11.40
2023-02-13T03:24:19.073Z,10.17
2023-02-13T03:26:56.638Z,11.57
2023-02-13T03:29:55.062Z,11.50
2023-02-13T03:32:29.193Z,11.23
2023-02-13T03:35:27.957Z,10.87
2023-02-13T03:38:05.046Z,12.23
2023-02-13T03:40:59.099Z,9.97
2023-02-13T03:43:28.355Z,10.67
2023-02-13T03:45:57.784Z,12.23
2023-02-13T03:48:47.381Z,12.67
2023-02-13T03:51:19.636Z,12.00
2023-02-13T03:53:52.932Z,12.67
2023-02-13T03:56:40.898Z,12.37
2023-02-13T03:59:17.337Z,11.30
2023-02-13T04:01:51.577Z,11.10
2023-02-13T04:04:26.780Z,12.30
2023-02-13T04:06:59.253Z,12.27
2023-02-13T04:09:30.637Z,12.20
2023-02-13T04:12:07.223Z,11.23
2023-02-13T04:14:39.819Z,11.27
2023-02-13T04:17:13.974Z,11.70
2023-02-13T04:19:42.319Z,11.20
2023-02-13T04:22:13.480Z,12.03
2023-02-13T04:24:42.848Z,11.20
2023-02-13T04:27:14.152Z,11.30
2023-02-13T04:29:42.732Z,10.90
2023-02-13T04:32:11.487Z,10.63
2023-02-13T04:34:39.531Z,11.37
2023-02-13T04:37:07.487Z,10.90
2023-02-13T04:39:35.157Z,11.30
2023-02-13T04:42:04.751Z,10.90
2023-02-13T04:44:33.221Z,12.97
2023-02-13T04:47:00.862Z,11.20
2023-02-13T04:49:29.038Z,11.53
2023-02-13T04:51:56.655Z,11.10
2023-02-13T04:54:24.290Z,10.33
2023-02-13T04:56:52.311Z,12.00
2023-02-13T04:59:21.267Z,10.30
2023-02-13T05:01:48.933Z,10.93
2023-02-13T05:04:17.895Z,11.50
2023-02-13T05:06:45.531Z,11.90
2023-02-13T05:09:13.302Z,11.77
2023-02-13T05:11:41.376Z,11.53
2023-02-13T05:14:10.381Z,10.80
2023-02-13T05:16:40.153Z,10.90
2023-02-13T05:19:08.249Z,12.87
2023-02-13T05:21:54.072Z,12.07
2023-02-13T05:24:21.699Z,11.60
2023-02-13T05:26:49.681Z,10.67
2023-02-13T05:29:20.937Z,10.87
2023-02-13T05:31:51.878Z,11.80
2023-02-13T05:34:20.322Z,11.40
2023-02-13T05:36:48.310Z,11.10
2023-02-13T05:39:16.648Z,11.17
2023-02-13T05:41:46.489Z,11.83
2023-02-13T05:44:14.319Z,10.60
2023-02-13T05:46:45.094Z,10.90
2023-02-13T05:49:16.140Z,12.50
2023-02-13T05:51:44.322Z,11.67
2023-02-13T05:54:11.985Z,10.67
2023-02-13T05:56:40.471Z,13.07
2023-02-13T05:59:09.412Z,10.27
2023-02-13T06:01:37.475Z,11.63
2023-02-13T06:04:05.674Z,10.60
2023-02-13T06:06:35.947Z,11.10
2023-02-13T06:09:03.937Z,12.27
2023-02-13T06:11:31.590Z,13.47
2023-02-13T06:16:44.882Z,10.83
2023-02-13T06:19:12.920Z,10.90
2023-02-13T06:21:41.880Z,12.00
2023-02-13T06:24:10.304Z,11.67
2023-02-13T06:26:37.942Z,10.97
2023-02-13T06:29:06.930Z,11.73
2023-02-13T06:31:34.698Z,10.70
2023-02-13T06:34:02.952Z,13.00
2023-02-13T06:36:30.667Z,18.77
2023-02-13T06:39:00.129Z,19.07
2023-02-13T06:41:27.735Z,18.17
2023-02-13T06:43:55.418Z,13.13
2023-02-13T06:46:23.220Z,13.77
2023-02-13T06:48:51.234Z,13.73
2023-02-13T06:51:19.239Z,12.60
2023-02-13T06:53:47.364Z,12.63
2023-02-13T06:56:16.706Z,13.57
2023-02-13T06:58:44.387Z,13.00
2023-02-13T07:01:12.396Z,14.03
2023-02-13T07:03:40.717Z,11.60
2023-02-13T07:06:10.284Z,12.60
2023-02-13T07:08:38.377Z,13.87
2023-02-13T07:11:06.137Z,12.73
2023-02-13T07:13:36.211Z,13.90
2023-02-13T07:16:04.297Z,12.83
2023-02-13T07:18:32.304Z,13.27
2023-02-13T07:21:00.256Z,14.07
2023-02-13T07:23:27.810Z,12.97
2023-02-13T07:25:55.416Z,12.93
2023-02-13T07:28:23.274Z,14.23
2023-02-13T07:30:52.250Z,12.80
2023-02-13T07:33:24.726Z,13.30
2023-02-13T07:35:53.825Z,13.87
2023-02-13T07:38:21.676Z,13.00
2023-02-13T07:40:50.123Z,13.40
2023-02-13T07:43:18.142Z,11.77
2023-02-13T07:45:46.950Z,13.70
2023-02-13T07:48:17.387Z,14.37
2023-02-13T07:50:46.596Z,13.00
2023-02-13T07:53:14.966Z,14.00
2023-02-13T07:55:44.306Z,13.07
2023-02-13T07:58:12.199Z,13.93
2023-02-13T08:00:40.502Z,14.10
2023-02-13T08:03:08.277Z,13.80
2023-02-13T08:05:39.671Z,12.93
2023-02-13T08:08:07.834Z,14.97
2023-02-13T08:10:53.551Z,14.57
2023-02-13T08:13:21.213Z,15.43
2023-02-13T08:15:49.590Z,16.43
2023-02-13T08:18:18.977Z,15.60
2023-02-13T08:20:49.887Z,17.40
2023-02-13T08:23:18.143Z,14.73
2023-02-13T08:25:47.971Z,15.90
2023-02-13T08:28:15.657Z,16.83
2023-02-13T08:30:44.166Z,15.83
2023-02-13T08:33:11.802Z,17.47
2023-02-13T08:35:40.600Z,17.90
2023-02-13T08:38:10.776Z,17.50
2023-02-13T08:40:39.382Z,16.40
2023-02-13T08:43:08.390Z,20.10
2023-02-13T08:45:38.456Z,18.40
2023-02-13T08:48:07.472Z,19.77
2023-02-13T08:50:37.631Z,18.80
2023-02-13T08:53:06.248Z,18.00
2023-02-13T08:55:35.593Z,18.70
2023-02-13T08:58:03.992Z,21.80
2023-02-13T09:00:32.105Z,21.57
2023-02-13T09:03:02.284Z,19.80
2023-02-13T09:05:32.422Z,21.13
2023-02-13T09:08:03.119Z,21.20
2023-02-13T09:10:31.227Z,18.63
2023-02-13T09:13:02.585Z,19.43
2023-02-13T09:15:30.329Z,17.70
2023-02-13T09:18:02.189Z,15.03
2023-02-13T09:20:29.738Z,15.70
2023-02-13T09:22:57.900Z,16.17
2023-02-13T09:25:26.376Z,15.17
2023-02-13T09:27:54.139Z,16.10
2023-02-13T09:30:26.709Z,22.97
2023-02-13T09:32:55.194Z,17.23
2023-02-13T09:35:24.445Z,14.23
2023-02-13T09:37:52.328Z,13.80
2023-02-13T09:40:25.725Z,11.70
2023-02-13T09:42:54.730Z,11.97
2023-02-13T09:45:24.970Z,12.40
2023-02-13T09:47:52.902Z,11.93
2023-02-13T09:50:24.990Z,13.27
2023-02-13T09:52:55.653Z,13.33
2023-02-13T09:55:28.167Z,12.70
2023-02-13T09:58:03.515Z,10.90
2023-02-13T10:00:39.326Z,11.97
2023-02-13T10:03:22.509Z,12.00
2023-02-13T10:05:59.773Z,13.33
2023-02-13T10:08:49.512Z,11.60
2023-02-13T10:11:36.744Z,13.10
2023-02-13T10:14:12.655Z,12.93
2023-02-13T10:16:46.164Z,12.30
2023-02-13T10:19:26.489Z,12.90
2023-02-13T10:21:59.263Z,12.00
2023-02-13T10:24:34.080Z,12.90
2023-02-13T10:27:06.290Z,11.47
2023-02-13T10:29:59.991Z,10.63
2023-02-13T10:32:37.187Z,11.30
2023-02-13T10:35:19.317Z,9.80
2023-02-13T10:37:51.098Z,10.10
2023-02-13T10:40:20.437Z,10.70
2023-02-13T10:42:58.560Z,10.77
2023-02-13T10:45:44.634Z,11.57
2023-02-13T10:48:27.996Z,9.97
2023-02-13T10:51:04.615Z,14.27
2023-02-13T10:53:46.064Z,11.00
2023-02-13T10:56:38.867Z,11.07
2023-02-13T10:59:20.358Z,11.60
2023-02-13T11:01:56.139Z,10.83
2023-02-13T11:04:28.144Z,10.67
2023-02-13T11:06:58.641Z,9.30
2023-02-13T11:09:27.080Z,9.90
2023-02-13T11:11:54.877Z,10.93
2023-02-13T11:14:24.320Z,11.17
2023-02-13T11:16:57.218Z,11.90
2023-02-13T11:19:31.528Z,9.77
2023-02-13T11:22:04.405Z,10.13
2023-02-13T11:24:33.236Z,11.13
2023-02-13T11:27:05.754Z,10.33
2023-02-13T11:29:35.286Z,7.87
2023-02-13T11:32:19.792Z,8.10
2023-02-13T11:34:51.463Z,9.20
2023-02-13T11:37:22.925Z,9.00
2023-02-13T11:39:51.986Z,9.80
2023-02-13T11:42:25.893Z,10.00
2023-02-13T11:44:56.189Z,9.13
2023-02-13T11:47:40.904Z,10.43
2023-02-13T11:50:23.063Z,8.63
2023-02-13T11:52:57.159Z,8.50
2023-02-13T11:55:28.138Z,9.13
2023-02-13T11:58:01.202Z,8.57
2023-02-13T12:21:29.921Z,8.33
2023-02-13T12:24:41.792Z,8.90
2023-02-13T12:27:16.981Z,8.60
2023-02-13T12:30:33.289Z,9.20
2023-02-13T12:33:16.743Z,8.03
2023-02-13T12:35:58.177Z,8.60
2023-02-13T12:38:41.832Z,7.83
2023-02-13T12:41:21.346Z,7.90
2023-02-13T12:44:19.761Z,8.90
2023-02-13T12:46:57.163Z,6.87
2023-02-13T12:49:44.218Z,7.53
2023-02-13T12:52:27.858Z,8.40
2023-02-13T12:55:13.462Z,7.60
2023-02-13T12:57:56.883Z,7.63
2023-02-13T13:00:37.855Z,7.53
2023-02-13T13:03:26.798Z,7.60
2023-02-13T13:06:12.425Z,7.03
2023-02-13T13:09:05.589Z,7.67
2023-02-13T13:11:57.045Z,7.73
2023-02-13T13:14:34.069Z,8.13
2023-02-13T13:17:25.068Z,7.07
2023-02-13T13:20:01.341Z,7.73
2023-02-13T13:22:34.554Z,7.90
2023-02-13T13:25:10.713Z,6.93
2023-02-13T13:27:45.398Z,7.20
2023-02-13T13:30:21.760Z,7.43
2023-02-13T13:32:56.703Z,7.00
2023-02-13T13:35:24.885Z,7.57
2023-02-13T13:38:03.600Z,7.23
2023-02-13T13:40:41.625Z,6.33
2023-02-13T13:43:19.529Z,7.80
2023-02-13T13:45:53.127Z,7.07
2023-02-13T13:48:46.586Z,6.57
2023-02-13T13:51:17.544Z,7.00
2023-02-13T13:54:19.866Z,8.10
2023-02-13T13:57:12.783Z,6.20
2023-02-13T14:00:25.572Z,6.50
2023-02-13T14:03:24.600Z,7.60
2023-02-13T14:06:00.938Z,6.47
2023-02-13T14:09:06.085Z,8.17
2023-02-13T14:11:41.007Z,6.90
2023-02-13T14:14:53.994Z,9.67
2023-02-13T14:17:54.833Z,7.50
2023-02-13T14:20:34.396Z,7.90
2023-02-13T14:23:15.438Z,7.90
2023-02-13T14:25:43.625Z,8.63
2023-02-13T14:28:23.117Z,7.80
2023-02-13T14:30:55.676Z,7.20
2023-02-13T14:33:29.825Z,8.07
2023-02-13T14:36:04.906Z,7.53
2023-02-13T14:38:32.900Z,8.27
2023-02-13T14:41:01.428Z,6.90
2023-02-13T14:43:36.222Z,7.33
2023-02-13T14:46:10.884Z,7.50
2023-02-13T14:48:44.134Z,7.97
2023-02-13T14:51:28.474Z,8.00
2023-02-13T14:54:02.733Z,8.37
2023-02-13T14:56:32.226Z,7.23
2023-02-13T14:59:08.322Z,8.97
2023-02-13T15:01:40.776Z,7.33
2023-02-13T15:04:13.873Z,7.23
2023-02-13T15:06:48.080Z,7.90
2023-02-13T15:09:54.688Z,8.30
2023-02-13T15:12:30.341Z,8.17
2023-02-13T15:15:01.756Z,7.87
2023-02-13T15:17:32.701Z,8.40
2023-02-13T15:20:05.945Z,7.47
2023-02-13T15:22:38.764Z,7.63
2023-02-13T15:25:08.186Z,7.93
2023-02-13T15:27:42.017Z,7.37
2023-02-13T15:30:21.815Z,7.70
2023-02-13T15:32:55.762Z,7.80
2023-02-13T15:35:26.576Z,7.80
2023-02-13T15:37:56.620Z,7.70
2023-02-13T15:40:27.494Z,8.10
2023-02-13T15:42:59.451Z,8.50
2023-02-13T15:45:29.223Z,8.20
2023-02-13T15:47:58.373Z,7.90
2023-02-13T15:50:30.629Z,7.90
2023-02-13T15:53:03.135Z,8.90
2023-02-13T15:55:33.240Z,7.90
2023-02-13T15:58:03.107Z,9.33
2023-02-13T16:00:34.655Z,8.17
2023-02-13T16:03:05.873Z,8.30
2023-02-13T16:05:40.382Z,8.23
2023-02-13T16:08:43.542Z,8.33
2023-02-13T16:11:33.262Z,8.80
2023-02-13T16:17:38.739Z,8.87
2023-02-13T16:20:22.523Z,9.77
2023-02-13T16:22:58.548Z,10.40
2023-02-13T16:25:36.279Z,9.10
2023-02-13T16:28:20.859Z,9.50
2023-02-13T16:31:05.875Z,8.07
2023-02-13T16:33:43.192Z,9.73
2023-02-13T16:36:34.490Z,8.37
2023-02-13T16:39:19.612Z,9.27
2023-02-13T16:44:40.391Z,9.67
2023-02-13T16:47:38.234Z,8.20
2023-02-13T16:54:38.184Z,9.00
2023-02-13T16:57:20.890Z,9.67
2023-02-13T16:59:56.589Z,9.40
2023-02-13T17:02:27.150Z,7.97
2023-02-13T17:04:59.289Z,7.90
2023-02-13T17:07:29.196Z,8.33
2023-02-13T17:10:00.590Z,8.47
2023-02-13T17:12:31.585Z,9.77
2023-02-13T17:15:00.102Z,9.40
2023-02-13T17:17:30.326Z,9.80
2023-02-13T17:19:58.474Z,9.50
2023-02-13T17:22:34.545Z,8.40
2023-02-13T17:25:05.171Z,8.27
2023-02-13T17:27:35.303Z,9.40
2023-02-13T17:30:03.088Z,9.10
2023-02-13T17:32:30.975Z,9.80
2023-02-13T17:34:58.673Z,9.90
2023-02-13T17:37:28.372Z,9.47
2023-02-13T17:39:56.491Z,9.90
2023-02-13T17:42:26.122Z,10.40
2023-02-13T17:44:56.866Z,9.80
2023-02-13T17:47:25.547Z,10.53
2023-02-13T17:49:59.160Z,10.13
2023-02-13T17:52:34.202Z,11.50
2023-02-13T17:55:02.400Z,11.00
2023-02-13T17:57:30.043Z,10.17
2023-02-13T18:00:03.776Z,9.43
2023-02-13T18:02:42.792Z,10.63
2023-02-13T18:05:10.541Z,11.20
2023-02-13T18:07:39.645Z,11.40
2023-02-13T18:10:12.089Z,10.73
2023-02-13T18:12:42.645Z,10.37
2023-02-13T18:15:12.610Z,9.67
2023-02-13T18:17:40.370Z,10.43
2023-02-13T18:20:11.972Z,10.33
2023-02-13T18:22:40.091Z,9.67
2023-02-13T18:25:09.301Z,10.47
2023-02-13T18:27:37.657Z,9.33
2023-02-13T18:30:07.245Z,9.60
2023-02-13T18:32:36.727Z,10.70
2023-02-13T18:35:04.562Z,9.70
2023-02-13T18:37:33.884Z,11.13
2023-02-13T18:40:01.950Z,8.90
2023-02-13T18:42:30.197Z,10.57
2023-02-13T18:44:58.398Z,10.07
2023-02-13T18:47:26.062Z,11.10
2023-02-13T18:49:55.605Z,10.83
2023-02-13T18:52:24.030Z,10.57
2023-02-13T18:54:52.073Z,11.43
2023-02-13T18:57:19.664Z,10.70
2023-02-13T18:59:48.204Z,9.20
2023-02-13T19:02:15.916Z,9.60
2023-02-13T19:04:44.914Z,10.83
2023-02-13T19:07:13.950Z,10.80
2023-02-13T19:09:42.065Z,10.03
2023-02-13T19:12:09.894Z,10.00
2023-02-13T19:14:37.726Z,9.63
2023-02-13T19:17:05.390Z,9.67
2023-02-13T19:19:33.011Z,9.10
2023-02-13T19:22:00.608Z,9.73
2023-02-13T19:24:29.618Z,9.83
2023-02-13T19:26:57.244Z,9.40
2023-02-13T19:29:24.934Z,9.63
2023-02-13T19:31:53.035Z,9.80
2023-02-13T19:34:20.714Z,9.40
2023-02-13T19:36:48.784Z,10.13
2023-02-13T19:39:16.657Z,9.80
2023-02-13T19:41:45.885Z,10.53
2023-02-13T19:44:13.637Z,10.83
2023-02-13T19:46:41.275Z,11.70
2023-02-13T19:49:10.304Z,12.80
2023-02-13T19:51:37.899Z,10.63
2023-02-13T19:54:07.597Z,12.30
2023-02-13T19:56:39.303Z,11.53
2023-02-13T19:59:12.520Z,10.63
2023-02-13T20:01:42.547Z,11.77
2023-02-13T20:04:10.977Z,12.70
2023-02-13T20:06:39.150Z,12.10
2023-02-13T20:09:09.798Z,11.40
2023-02-13T20:11:38.330Z,11.27
2023-02-13T20:14:06.959Z,10.90
2023-02-13T20:16:36.890Z,11.23
2023-02-13T20:19:07.508Z,11.40
2023-02-13T20:21:35.574Z,12.03
2023-02-13T20:24:03.893Z,11.13
2023-02-13T20:26:31.976Z,12.50
2023-02-13T20:28:59.914Z,12.03
2023-02-13T20:31:30.051Z,12.33
2023-02-13T20:33:59.736Z,13.77
2023-02-13T20:36:29.977Z,12.63
2023-02-13T20:39:00.341Z,11.47
2023-02-13T20:41:31.448Z,13.10
2023-02-13T20:44:00.536Z,10.33
2023-02-13T20:46:30.321Z,10.47
2023-02-13T20:49:00.382Z,10.33
2023-02-13T20:51:28.033Z,11.07
2023-02-13T20:53:57.531Z,10.73
2023-02-13T20:56:28.532Z,10.50
2023-02-13T20:58:57.809Z,12.10
2023-02-13T21:01:28.686Z,12.43
2023-02-13T21:03:57.190Z,11.80
2023-02-13T21:06:28.687Z,12.47
2023-02-13T21:08:56.814Z,12.30
2023-02-13T21:11:25.294Z,13.70
2023-02-13T21:13:53.043Z,12.73
2023-02-13T21:16:23.176Z,12.10
2023-02-13T21:18:53.696Z,12.40
2023-02-13T21:21:23.337Z,12.83
2023-02-13T21:23:55.386Z,11.93
2023-02-13T21:26:23.916Z,10.60
2023-02-13T21:28:52.092Z,12.73
2023-02-13T21:31:24.091Z,11.63
2023-02-13T21:33:52.505Z,13.90
2023-02-13T21:36:20.540Z,12.30
2023-02-13T21:38:49.012Z,12.60
2023-02-13T21:41:19.245Z,11.87
2023-02-13T21:43:49.154Z,11.10
2023-02-13T21:46:19.922Z,10.40
2023-02-13T21:48:48.498Z,13.00
2023-02-13T21:51:19.651Z,13.00
2023-02-13T21:53:50.265Z,11.57
2023-02-13T21:56:22.267Z,14.03
2023-02-13T21:58:50.672Z,11.33
2023-02-13T22:01:26.608Z,12.67
2023-02-13T22:03:59.036Z,12.30
2023-02-13T22:06:29.772Z,11.10
2023-02-13T22:08:58.989Z,12.27
2023-02-13T22:11:28.621Z,12.00
2023-02-13T22:13:57.314Z,10.83
2023-02-13T22:16:25.858Z,12.93
2023-02-13T22:18:53.646Z,11.57
2023-02-13T22:21:24.085Z,12.37
2023-02-13T22:23:53.207Z,11.77
2023-02-13T22:26:23.799Z,11.73
2023-02-13T22:28:54.401Z,12.43
2023-02-13T22:31:25.823Z,11.23
2023-02-13T22:34:04.230Z,12.17
2023-02-13T22:36:34.333Z,10.77
2023-02-13T22:39:02.442Z,11.77
2023-02-13T22:41:30.537Z,11.60
2023-02-13T22:44:00.186Z,13.43
2023-02-13T22:46:30.201Z,14.20
2023-02-13T22:48:58.355Z,13.20
2023-02-13T22:51:29.422Z,14.00
2023-02-13T22:53:58.646Z,12.90
2023-02-13T22:56:27.838Z,12.57
2023-02-13T22:58:55.741Z,13.83
2023-02-13T23:01:26.929Z,14.03
2023-02-13T23:03:55.104Z,13.00
2023-02-13T23:06:23.857Z,13.73
2023-02-13T23:08:53.273Z,13.67
2023-02-13T23:11:40.833Z,13.60
2023-02-13T23:14:09.965Z,12.60
2023-02-13T23:17:00.393Z,11.97
2023-02-13T23:19:30.570Z,12.30
2023-02-13T23:21:59.142Z,12.50
2023-02-13T23:24:26.874Z,12.70
2023-02-13T23:26:54.849Z,13.37
2023-02-13T23:29:22.493Z,11.47
2023-02-13T23:31:51.929Z,11.20
2023-02-13T23:34:19.940Z,12.67
2023-02-13T23:36:47.702Z,13.83
2023-02-13T23:39:15.704Z,12.70
2023-02-13T23:41:43.309Z,11.30
2023-02-13T23:44:11.745Z,11.70
2023-02-13T23:46:39.440Z,12.93
2023-02-13T23:49:08.820Z,11.83
2023-02-13T23:51:37.401Z,14.00
2023-02-13T23:54:05.614Z,14.23
2023-02-13T23:56:33.386Z,11.70
2023-02-13T23:59:01.836Z,14.33
